createdAt,value
2022-12-22T00:01:15.529Z,31.70
2022-12-22T00:02:37.778Z,32.80
2022-12-22T00:03:53.398Z,30.45
2022-12-22T00:05:08.874Z,30.05
2022-12-22T00:06:28.219Z,28.70
2022-12-22T00:07:43.343Z,25.63
2022-12-22T00:09:05.073Z,26.50
2022-12-22T00:10:20.616Z,23.58
2022-12-22T00:11:35.811Z,23.60
2022-12-22T00:12:51.302Z,27.02
2022-12-22T00:14:06.730Z,28.45
2022-12-22T00:15:23.557Z,21.23
2022-12-22T00:16:39.097Z,20.13
2022-12-22T00:17:54.295Z,23.40
2022-12-22T00:19:09.794Z,19.52
2022-12-22T00:20:39.119Z,22.73
2022-12-22T00:21:54.594Z,20.25
2022-12-22T00:23:09.659Z,21.83
2022-12-22T00:24:25.047Z,21.23
2022-12-22T00:25:39.907Z,20.08
2022-12-22T00:26:55.342Z,21.38
2022-12-22T00:28:10.887Z,18.30
2022-12-22T00:29:33.073Z,19.77
2022-12-22T00:30:48.572Z,17.25
2022-12-22T00:32:04.294Z,20.05
2022-12-22T00:33:21.466Z,19.88
2022-12-22T00:34:41.309Z,22.63
2022-12-22T00:35:56.804Z,19.95
2022-12-22T00:37:11.603Z,21.67
2022-12-22T00:38:33.011Z,19.67
2022-12-22T00:39:47.960Z,27.52
2022-12-22T00:41:02.909Z,22.88
2022-12-22T00:42:18.174Z,21.55
2022-12-22T00:43:33.563Z,20.13
2022-12-22T00:44:48.463Z,21.48
2022-12-22T00:46:03.725Z,20.48
2022-12-22T00:47:19.009Z,22.35
2022-12-22T00:48:41.135Z,18.10
2022-12-22T00:49:59.643Z,19.08
2022-12-22T00:51:14.817Z,18.27
2022-12-22T00:52:30.683Z,25.90
2022-12-22T00:53:45.582Z,26.20
2022-12-22T00:55:01.689Z,21.67
2022-12-22T00:56:16.814Z,21.77
2022-12-22T00:57:38.320Z,22.10
2022-12-22T00:58:54.515Z,22.35
2022-12-22T01:00:11.760Z,23.25
2022-12-22T01:01:29.505Z,21.02
2022-12-22T01:02:44.657Z,24.92
2022-12-22T01:04:00.004Z,26.55
2022-12-22T01:05:15.343Z,26.42
2022-12-22T01:06:30.741Z,24.73
2022-12-22T01:07:46.111Z,25.35
2022-12-22T01:09:01.845Z,23.77
2022-12-22T01:10:17.394Z,23.52
2022-12-22T01:11:32.650Z,23.58
2022-12-22T01:12:56.050Z,24.95
2022-12-22T01:14:11.108Z,21.80
2022-12-22T01:15:32.166Z,24.45
2022-12-22T01:16:47.572Z,25.77
2022-12-22T01:18:02.997Z,25.60
2022-12-22T01:19:18.012Z,23.67
2022-12-22T01:20:33.152Z,26.10
2022-12-22T01:21:48.569Z,26.42
2022-12-22T01:23:03.573Z,23.25
2022-12-22T01:24:18.699Z,22.48
2022-12-22T01:25:36.591Z,25.88
2022-12-22T01:26:51.895Z,22.13
2022-12-22T01:28:07.296Z,21.02
2022-12-22T01:29:22.294Z,22.77
2022-12-22T01:30:37.199Z,19.48
2022-12-22T01:31:52.681Z,19.90
2022-12-22T01:33:07.749Z,20.88
2022-12-22T01:34:22.910Z,23.00
2022-12-22T01:35:43.515Z,21.88
2022-12-22T01:36:58.467Z,18.77
2022-12-22T01:38:13.797Z,18.75
2022-12-22T01:39:28.543Z,20.40
2022-12-22T01:40:43.962Z,21.95
2022-12-22T01:41:59.276Z,24.98
2022-12-22T01:43:14.193Z,19.85
2022-12-22T01:44:34.825Z,19.45
2022-12-22T01:45:54.344Z,19.35
2022-12-22T01:47:09.317Z,18.75
2022-12-22T01:48:29.351Z,28.13
2022-12-22T01:50:01.284Z,19.73
2022-12-22T01:51:20.333Z,22.25
2022-12-22T01:52:37.795Z,18.98
2022-12-22T01:53:53.646Z,22.42
2022-12-22T01:55:09.359Z,23.35
2022-12-22T01:56:25.396Z,20.80
2022-12-22T01:57:40.895Z,23.33
2022-12-22T01:59:00.858Z,25.77
2022-12-22T02:00:16.164Z,23.33
2022-12-22T02:01:31.708Z,22.60
2022-12-22T02:02:49.968Z,24.42
2022-12-22T02:04:05.045Z,22.27
2022-12-22T02:05:23.087Z,22.90
2022-12-22T02:06:54.619Z,23.17
2022-12-22T02:08:41.821Z,22.80
2022-12-22T02:10:27.528Z,24.63
2022-12-22T02:12:11.198Z,24.40
2022-12-22T02:13:48.214Z,25.83
2022-12-22T02:15:20.305Z,24.23
2022-12-22T02:16:52.151Z,28.88
2022-12-22T02:18:46.971Z,26.33
2022-12-22T02:20:26.978Z,25.13
2022-12-22T02:21:44.313Z,25.90
2022-12-22T02:23:11.462Z,25.80
2022-12-22T02:24:35.042Z,25.23
2022-12-22T02:27:19.605Z,28.73
2022-12-22T02:28:35.148Z,28.45
2022-12-22T02:29:55.668Z,28.15
2022-12-22T02:31:11.645Z,33.85
2022-12-22T02:32:26.947Z,31.05
2022-12-22T02:33:43.407Z,28.65
2022-12-22T02:34:58.491Z,27.83
2022-12-22T02:36:38.306Z,30.48
2022-12-22T02:38:24.375Z,24.88
2022-12-22T02:39:54.927Z,24.77
2022-12-22T02:41:32.171Z,25.88
2022-12-22T02:42:50.430Z,21.58
2022-12-22T02:44:44.322Z,25.85
2022-12-22T02:46:22.335Z,24.60
2022-12-22T02:48:06.118Z,24.02
2022-12-22T02:49:40.166Z,20.05
2022-12-22T02:51:03.736Z,21.35
2022-12-22T02:52:34.746Z,21.52
2022-12-22T02:53:50.733Z,26.02
2022-12-22T02:55:05.821Z,24.70
2022-12-22T02:56:29.627Z,23.70
2022-12-22T02:57:45.177Z,29.30
2022-12-22T02:59:00.109Z,26.48
2022-12-22T03:00:15.265Z,24.25
2022-12-22T03:01:30.676Z,27.23
2022-12-22T03:02:45.797Z,27.63
2022-12-22T03:04:01.376Z,30.73
2022-12-22T03:05:16.718Z,36.22
2022-12-22T03:06:32.169Z,35.22
2022-12-22T03:07:47.092Z,33.22
2022-12-22T03:09:01.981Z,35.65
2022-12-22T03:10:17.462Z,33.83
2022-12-22T03:11:32.382Z,32.00
2022-12-22T03:12:47.520Z,29.45
2022-12-22T03:14:02.650Z,34.05
2022-12-22T03:15:17.467Z,30.83
2022-12-22T03:16:32.450Z,31.20
2022-12-22T03:17:47.861Z,29.33
2022-12-22T03:19:03.095Z,30.98
2022-12-22T03:20:18.273Z,31.23
2022-12-22T03:21:34.541Z,29.38
2022-12-22T03:22:49.451Z,28.38
2022-12-22T03:24:04.866Z,31.67
2022-12-22T03:25:19.844Z,27.45
2022-12-22T03:26:16.440Z,28.80
2022-12-22T03:27:13.197Z,33.53
2022-12-22T03:28:09.951Z,31.98
2022-12-22T03:29:06.990Z,28.50
2022-12-22T03:30:04.263Z,30.17
2022-12-22T03:31:05.077Z,30.90
2022-12-22T03:32:01.999Z,36.85
2022-12-22T03:32:58.922Z,31.33
2022-12-22T03:33:55.674Z,36.67
2022-12-22T03:34:52.239Z,31.30
2022-12-22T03:35:48.879Z,33.67
2022-12-22T03:36:45.488Z,34.25
2022-12-22T03:37:42.079Z,35.17
2022-12-22T03:38:38.691Z,36.20
2022-12-22T03:39:35.912Z,37.55
2022-12-22T03:40:32.912Z,36.10
2022-12-22T03:41:48.038Z,38.72
2022-12-22T03:43:03.640Z,36.92
2022-12-22T03:44:18.829Z,36.25
2022-12-22T03:45:34.212Z,34.55
2022-12-22T03:46:30.875Z,39.30
2022-12-22T03:47:27.537Z,35.45
2022-12-22T03:48:24.144Z,35.55
2022-12-22T03:49:22.483Z,34.08
2022-12-22T03:50:19.071Z,40.00
2022-12-22T03:51:15.654Z,37.65
2022-12-22T03:52:12.279Z,36.05
2022-12-22T03:53:08.843Z,38.25
2022-12-22T03:54:05.497Z,41.72
2022-12-22T03:55:02.407Z,33.22
2022-12-22T03:56:04.099Z,34.13
2022-12-22T03:57:04.103Z,35.35
2022-12-22T03:58:00.746Z,38.33
2022-12-22T03:58:57.466Z,36.20
2022-12-22T03:59:53.999Z,41.85
2022-12-22T04:00:50.692Z,40.35
2022-12-22T04:01:50.593Z,36.13
2022-12-22T04:02:47.337Z,37.75
2022-12-22T04:03:43.987Z,33.38
2022-12-22T04:04:40.674Z,36.03
2022-12-22T04:05:37.389Z,35.33
2022-12-22T04:06:33.997Z,37.60
2022-12-22T04:07:30.708Z,42.88
2022-12-22T04:08:27.373Z,39.03
2022-12-22T04:09:24.933Z,37.15
2022-12-22T04:10:39.870Z,46.28
2022-12-22T04:11:55.114Z,48.42
2022-12-22T04:12:55.443Z,43.83
2022-12-22T04:13:51.996Z,44.17
2022-12-22T04:14:48.554Z,45.15
2022-12-22T04:15:45.100Z,43.08
2022-12-22T04:16:41.810Z,51.47
2022-12-22T04:17:38.643Z,42.92
2022-12-22T04:18:35.224Z,45.70
2022-12-22T04:19:32.052Z,43.63
2022-12-22T04:20:28.970Z,49.40
2022-12-22T04:21:26.104Z,49.47
2022-12-22T04:22:22.680Z,43.67
2022-12-22T04:23:19.313Z,41.78
2022-12-22T04:24:16.202Z,42.70
2022-12-22T04:25:13.491Z,43.30
2022-12-22T04:26:10.380Z,44.67
2022-12-22T04:27:06.945Z,36.80
2022-12-22T04:28:03.629Z,35.80
2022-12-22T04:29:00.325Z,38.95
2022-12-22T04:29:57.014Z,30.67
2022-12-22T04:30:53.574Z,33.00
2022-12-22T04:31:50.426Z,33.65
2022-12-22T04:32:47.250Z,31.35
2022-12-22T04:33:43.907Z,33.72
2022-12-22T04:34:40.516Z,34.88
2022-12-22T04:35:37.171Z,34.67
2022-12-22T04:36:33.783Z,33.97
2022-12-22T04:37:30.333Z,30.38
2022-12-22T04:38:26.961Z,26.70
2022-12-22T04:39:23.580Z,26.70
2022-12-22T04:40:20.157Z,30.33
2022-12-22T04:41:16.701Z,26.45
2022-12-22T04:42:13.397Z,28.80
2022-12-22T04:43:10.033Z,28.35
2022-12-22T04:44:07.010Z,31.35
2022-12-22T04:45:05.447Z,29.60
2022-12-22T04:46:02.154Z,31.10
2022-12-22T04:46:58.815Z,26.30
2022-12-22T04:47:55.447Z,30.33
2022-12-22T04:48:56.192Z,30.02
2022-12-22T04:49:56.118Z,25.67
2022-12-22T04:50:55.172Z,30.13
2022-12-22T04:51:51.830Z,31.55
2022-12-22T04:52:48.409Z,29.20
2022-12-22T04:53:44.983Z,30.65
2022-12-22T04:54:41.543Z,32.60
2022-12-22T04:55:38.104Z,31.38
2022-12-22T04:56:34.691Z,33.03
2022-12-22T04:57:34.332Z,32.65
2022-12-22T04:58:35.982Z,33.97
2022-12-22T04:59:32.594Z,31.45
2022-12-22T05:00:29.173Z,37.25
2022-12-22T05:01:26.105Z,37.97
2022-12-22T05:02:22.872Z,38.15
2022-12-22T05:03:20.069Z,36.70
2022-12-22T05:04:23.367Z,38.03
2022-12-22T05:05:20.342Z,33.83
2022-12-22T05:06:16.963Z,35.78
2022-12-22T05:07:13.593Z,37.38
2022-12-22T05:08:10.617Z,36.40
2022-12-22T05:09:07.233Z,36.40
2022-12-22T05:10:06.910Z,37.63
2022-12-22T05:11:03.876Z,33.58
2022-12-22T05:12:00.467Z,36.08
2022-12-22T05:12:57.845Z,31.70
2022-12-22T05:13:54.430Z,34.75
2022-12-22T05:14:51.195Z,30.02
2022-12-22T05:15:47.787Z,30.98
2022-12-22T05:16:44.443Z,26.13
2022-12-22T05:17:41.066Z,27.10
2022-12-22T05:18:38.761Z,28.02
2022-12-22T05:19:35.343Z,28.02
2022-12-22T05:20:32.118Z,36.40
2022-12-22T05:21:28.730Z,30.90
2022-12-22T05:22:25.341Z,31.38
2022-12-22T05:23:21.984Z,30.75
2022-12-22T05:24:18.595Z,31.88
2022-12-22T05:25:19.924Z,30.65
2022-12-22T05:26:19.190Z,29.48
2022-12-22T05:27:15.827Z,28.08
2022-12-22T05:28:12.447Z,29.67
2022-12-22T05:29:09.037Z,28.05
2022-12-22T05:30:06.341Z,30.88
2022-12-22T05:31:20.313Z,25.52
2022-12-22T05:32:17.088Z,29.83
2022-12-22T05:33:13.807Z,28.77
2022-12-22T05:34:10.419Z,28.73
2022-12-22T05:35:08.105Z,28.35
2022-12-22T05:36:04.934Z,26.08
2022-12-22T05:37:01.542Z,26.27
2022-12-22T05:37:58.435Z,29.00
2022-12-22T05:38:54.999Z,27.13
2022-12-22T05:39:51.527Z,26.08
2022-12-22T05:40:48.538Z,29.23
2022-12-22T05:41:45.332Z,29.50
2022-12-22T05:42:42.046Z,27.80
2022-12-22T05:43:39.124Z,27.35
2022-12-22T05:44:35.711Z,23.67
2022-12-22T05:45:32.322Z,28.60
2022-12-22T05:46:28.935Z,29.65
2022-12-22T05:47:25.520Z,29.88
2022-12-22T05:48:28.317Z,31.77
2022-12-22T05:49:27.619Z,23.13
2022-12-22T05:50:26.049Z,24.90
2022-12-22T05:51:22.655Z,23.48
2022-12-22T05:52:19.248Z,24.95
2022-12-22T05:53:15.874Z,27.60
2022-12-22T05:54:12.794Z,32.42
2022-12-22T05:55:10.395Z,23.35
2022-12-22T05:56:07.875Z,26.08
2022-12-22T05:57:04.522Z,26.67
2022-12-22T05:58:02.311Z,25.02
2022-12-22T05:58:58.882Z,29.42
2022-12-22T05:59:55.654Z,30.60
2022-12-22T06:00:52.275Z,32.85
2022-12-22T06:01:48.861Z,31.33
2022-12-22T06:02:45.740Z,26.25
2022-12-22T06:03:42.491Z,30.20
2022-12-22T06:04:39.223Z,32.50
2022-12-22T06:05:35.812Z,27.48
2022-12-22T06:06:32.432Z,26.52
2022-12-22T06:07:29.034Z,27.02
2022-12-22T06:08:26.482Z,30.90
2022-12-22T06:09:23.196Z,25.42
2022-12-22T06:10:19.828Z,26.27
2022-12-22T06:11:18.375Z,30.95
2022-12-22T06:12:15.054Z,44.15
2022-12-22T06:13:11.697Z,32.97
2022-12-22T06:14:08.458Z,27.85
2022-12-22T06:15:05.962Z,31.80
2022-12-22T06:16:02.649Z,33.58
2022-12-22T06:16:59.274Z,36.22
2022-12-22T06:17:55.905Z,32.42
2022-12-22T06:18:52.464Z,29.27
2022-12-22T06:19:49.061Z,27.70
2022-12-22T06:20:47.026Z,25.08
2022-12-22T06:21:43.614Z,26.30
2022-12-22T06:22:40.437Z,29.35
2022-12-22T06:23:36.993Z,26.55
2022-12-22T06:24:33.633Z,31.80
2022-12-22T06:25:30.202Z,36.40
2022-12-22T06:26:26.731Z,33.53
2022-12-22T06:27:23.466Z,36.72
2022-12-22T06:28:20.083Z,35.17
2022-12-22T06:29:16.822Z,47.78
2022-12-22T06:30:15.492Z,71.25
2022-12-22T06:31:12.319Z,37.80
2022-12-22T06:32:08.987Z,36.72
2022-12-22T06:33:05.543Z,41.10
2022-12-22T06:34:02.159Z,36.63
2022-12-22T06:34:58.813Z,37.97
2022-12-22T06:35:59.040Z,31.23
2022-12-22T06:36:56.145Z,36.88
2022-12-22T06:37:52.702Z,28.83
2022-12-22T06:38:49.975Z,31.05
2022-12-22T06:39:47.319Z,29.35
2022-12-22T06:40:43.972Z,32.53
2022-12-22T06:41:59.603Z,34.60
2022-12-22T06:43:11.333Z,25.90
2022-12-22T06:44:07.845Z,25.17
2022-12-22T06:45:04.853Z,24.65
2022-12-22T06:46:01.567Z,24.27
2022-12-22T06:46:58.249Z,25.17
2022-12-22T06:47:54.985Z,23.38
2022-12-22T06:48:52.241Z,25.95
2022-12-22T06:49:49.711Z,22.15
2022-12-22T06:50:46.499Z,20.95
2022-12-22T06:51:43.139Z,22.55
2022-12-22T06:52:39.888Z,25.45
2022-12-22T06:53:36.450Z,29.27
2022-12-22T06:54:33.089Z,26.20
2022-12-22T06:55:29.799Z,24.15
2022-12-22T06:56:26.400Z,25.55
2022-12-22T06:57:23.015Z,27.15
2022-12-22T06:58:19.569Z,27.30
2022-12-22T06:59:16.189Z,22.90
2022-12-22T07:00:13.207Z,25.00
2022-12-22T07:01:09.799Z,26.48
2022-12-22T07:02:07.034Z,24.75
2022-12-22T07:03:03.934Z,28.27
2022-12-22T07:04:00.934Z,24.50
2022-12-22T07:04:57.745Z,28.77
2022-12-22T07:05:54.311Z,25.75
2022-12-22T07:06:51.013Z,24.27
2022-12-22T07:07:47.683Z,28.52
2022-12-22T07:08:45.345Z,23.58
2022-12-22T07:09:41.893Z,26.42
2022-12-22T07:10:56.807Z,25.02
2022-12-22T07:11:53.404Z,30.75
2022-12-22T07:12:50.085Z,25.73
2022-12-22T07:13:47.893Z,27.27
2022-12-22T07:14:44.461Z,33.97
2022-12-22T07:15:41.026Z,29.77
2022-12-22T07:16:37.682Z,29.05
2022-12-22T07:17:34.340Z,27.38
2022-12-22T07:18:33.294Z,31.77
2022-12-22T07:19:29.941Z,29.35
2022-12-22T07:20:26.609Z,26.98
2022-12-22T07:21:23.263Z,28.25
2022-12-22T07:22:25.642Z,30.55
2022-12-22T07:23:26.749Z,30.65
2022-12-22T07:24:26.036Z,27.30
2022-12-22T07:25:22.705Z,35.17
2022-12-22T07:26:19.366Z,30.90
2022-12-22T07:27:16.311Z,26.73
2022-12-22T07:28:16.659Z,29.02
2022-12-22T07:29:17.175Z,26.10
2022-12-22T07:30:14.135Z,37.47
2022-12-22T07:31:12.028Z,31.08
2022-12-22T07:32:08.778Z,25.33
2022-12-22T07:33:05.482Z,29.92
2022-12-22T07:34:02.113Z,28.98
2022-12-22T07:35:04.741Z,28.15
2022-12-22T07:36:12.514Z,28.05
2022-12-22T07:37:09.064Z,30.13
2022-12-22T07:38:05.659Z,27.13
2022-12-22T07:39:02.661Z,28.77
2022-12-22T07:39:59.393Z,27.83
2022-12-22T07:41:04.504Z,32.47
2022-12-22T07:42:19.967Z,31.20
2022-12-22T07:43:16.567Z,30.13
2022-12-22T07:44:13.222Z,25.75
2022-12-22T07:45:10.791Z,31.70
2022-12-22T07:46:07.615Z,30.33
2022-12-22T07:47:04.437Z,31.08
2022-12-22T07:48:02.379Z,26.40
2022-12-22T07:49:18.248Z,31.63
2022-12-22T07:50:29.884Z,36.42
2022-12-22T07:51:26.694Z,32.33
2022-12-22T07:52:23.388Z,30.95
2022-12-22T07:53:20.074Z,35.58
2022-12-22T07:54:17.259Z,33.47
2022-12-22T07:55:14.310Z,35.50
2022-12-22T07:56:10.964Z,36.33
2022-12-22T07:57:07.604Z,42.40
2022-12-22T07:58:04.188Z,44.72
2022-12-22T07:59:01.249Z,53.20
2022-12-22T07:59:57.868Z,50.92
2022-12-22T08:01:01.520Z,60.88
2022-12-22T08:01:58.305Z,63.38
2022-12-22T08:02:56.637Z,62.88
2022-12-22T08:03:53.291Z,51.55
2022-12-22T08:04:49.968Z,51.97
2022-12-22T08:05:46.665Z,53.80
2022-12-22T08:06:43.224Z,56.92
2022-12-22T08:07:39.843Z,65.03
2022-12-22T08:08:36.561Z,51.80
2022-12-22T08:09:33.242Z,60.78
2022-12-22T08:10:29.870Z,51.60
2022-12-22T08:11:26.742Z,54.75
2022-12-22T08:12:23.373Z,50.10
2022-12-22T08:13:20.583Z,49.58
2022-12-22T08:14:17.264Z,49.65
2022-12-22T08:15:13.912Z,52.55
2022-12-22T08:16:12.665Z,53.13
2022-12-22T08:17:09.283Z,57.13
2022-12-22T08:18:05.948Z,53.47
2022-12-22T08:19:04.922Z,61.67
2022-12-22T08:20:01.753Z,54.83
2022-12-22T08:20:58.420Z,65.68
2022-12-22T08:21:55.008Z,50.65
2022-12-22T08:22:51.683Z,50.42
2022-12-22T08:23:48.248Z,50.95
2022-12-22T08:24:44.905Z,57.00
2022-12-22T08:25:41.572Z,51.70
2022-12-22T08:26:44.159Z,50.83
2022-12-22T08:27:50.905Z,57.60
2022-12-22T08:28:55.028Z,43.83
2022-12-22T08:29:55.606Z,51.80
2022-12-22T08:30:52.517Z,54.63
2022-12-22T08:31:49.491Z,53.50
2022-12-22T08:32:48.234Z,56.53
2022-12-22T08:33:45.284Z,51.13
2022-12-22T08:34:42.588Z,46.88
2022-12-22T08:35:39.369Z,47.78
2022-12-22T08:36:41.946Z,48.95
2022-12-22T08:37:42.950Z,54.08
2022-12-22T08:38:42.401Z,51.55
2022-12-22T08:39:41.832Z,51.30
2022-12-22T08:40:38.924Z,48.75
2022-12-22T08:41:52.194Z,57.35
2022-12-22T08:42:51.622Z,50.80
2022-12-22T08:43:48.248Z,52.05
2022-12-22T08:44:46.069Z,55.95
2022-12-22T08:45:42.974Z,52.55
2022-12-22T08:46:39.660Z,49.67
2022-12-22T08:47:36.310Z,42.08
2022-12-22T08:48:33.143Z,52.72
2022-12-22T08:49:29.720Z,51.70
2022-12-22T08:50:26.467Z,50.63
2022-12-22T08:51:23.381Z,47.78
2022-12-22T08:52:19.991Z,55.40
2022-12-22T08:53:45.227Z,47.88
2022-12-22T08:54:33.793Z,62.97
2022-12-22T08:55:30.568Z,50.33
2022-12-22T08:56:27.170Z,43.88
2022-12-22T08:57:23.755Z,53.80
2022-12-22T08:58:21.359Z,53.63
2022-12-22T08:59:18.191Z,50.53
2022-12-22T09:00:15.397Z,51.58
2022-12-22T09:01:23.647Z,50.90
2022-12-22T09:02:20.345Z,50.05
2022-12-22T09:03:17.014Z,50.70
2022-12-22T09:04:15.487Z,54.83
2022-12-22T09:05:12.129Z,72.40
2022-12-22T09:06:08.822Z,55.55
2022-12-22T09:07:05.759Z,58.65
2022-12-22T09:08:02.740Z,48.53
2022-12-22T09:09:03.256Z,68.20
2022-12-22T09:09:59.901Z,58.97
2022-12-22T09:10:56.650Z,58.60
2022-12-22T09:11:53.310Z,71.60
2022-12-22T09:12:51.440Z,60.25
2022-12-22T09:13:51.302Z,54.15
2022-12-22T09:14:47.860Z,57.92
2022-12-22T09:15:44.402Z,58.22
2022-12-22T09:16:41.329Z,70.50
2022-12-22T09:17:38.018Z,51.55
2022-12-22T09:18:34.860Z,54.70
2022-12-22T09:19:31.506Z,55.13
2022-12-22T09:20:28.093Z,59.05
2022-12-22T09:21:25.376Z,50.38
2022-12-22T09:22:28.209Z,53.92
2022-12-22T09:23:25.956Z,56.75
2022-12-22T09:24:22.538Z,55.67
2022-12-22T09:25:19.068Z,49.92
2022-12-22T09:26:18.573Z,53.95
2022-12-22T09:27:15.126Z,55.70
2022-12-22T09:28:12.267Z,59.53
2022-12-22T09:29:08.998Z,56.35
2022-12-22T09:30:06.327Z,67.30
2022-12-22T09:31:03.557Z,70.07
2022-12-22T09:32:00.289Z,53.03
2022-12-22T09:32:56.900Z,45.08
2022-12-22T09:33:54.073Z,45.90
2022-12-22T09:34:50.617Z,60.88
2022-12-22T09:35:47.327Z,54.75
2022-12-22T09:36:44.199Z,55.38
2022-12-22T09:37:40.942Z,59.03
2022-12-22T09:38:39.094Z,45.75
2022-12-22T09:39:35.754Z,58.55
2022-12-22T09:40:32.842Z,53.97
2022-12-22T09:41:37.216Z,54.40
2022-12-22T09:42:35.630Z,56.28
2022-12-22T09:43:32.245Z,63.70
2022-12-22T09:44:33.653Z,67.82
2022-12-22T09:45:31.243Z,73.40
2022-12-22T09:46:31.619Z,69.55
2022-12-22T09:47:37.826Z,61.97
2022-12-22T09:48:37.212Z,70.20
2022-12-22T09:49:33.908Z,65.78
2022-12-22T09:50:33.108Z,74.50
2022-12-22T09:51:31.123Z,84.15
2022-12-22T09:52:33.725Z,81.63
2022-12-22T09:53:31.161Z,74.90
2022-12-22T09:54:29.164Z,65.65
2022-12-22T09:55:25.871Z,76.78
2022-12-22T09:56:25.305Z,63.33
2022-12-22T09:57:26.639Z,66.15
2022-12-22T09:58:30.584Z,74.32
2022-12-22T09:59:28.732Z,71.05
2022-12-22T10:00:27.138Z,68.25
2022-12-22T10:01:58.225Z,69.70
2022-12-22T10:03:14.196Z,82.93
2022-12-22T10:04:43.052Z,67.15
2022-12-22T10:05:54.070Z,76.57
2022-12-22T10:07:26.114Z,63.00
2022-12-22T10:08:30.039Z,68.88
2022-12-22T10:09:49.562Z,78.97
2022-12-22T10:10:46.224Z,74.25
2022-12-22T10:11:57.347Z,78.35
2022-12-22T10:13:05.422Z,68.35
2022-12-22T10:14:02.004Z,81.97
2022-12-22T10:14:58.647Z,66.82
2022-12-22T10:15:56.069Z,73.05
2022-12-22T10:17:31.236Z,63.65
2022-12-22T10:18:29.913Z,67.43
2022-12-22T10:19:26.518Z,71.80
2022-12-22T10:20:28.301Z,74.45
2022-12-22T10:21:26.311Z,68.53
2022-12-22T10:22:32.173Z,69.90
2022-12-22T10:23:30.662Z,70.75
2022-12-22T10:24:29.356Z,76.63
2022-12-22T10:26:08.851Z,64.57
2022-12-22T10:26:57.525Z,68.72
2022-12-22T10:27:59.858Z,70.63
2022-12-22T10:29:06.011Z,88.82
2022-12-22T10:30:38.745Z,73.70
2022-12-22T10:31:39.582Z,66.57
2022-12-22T10:32:36.337Z,63.05
2022-12-22T10:33:34.764Z,65.00
2022-12-22T10:34:31.532Z,62.47
2022-12-22T10:35:42.436Z,69.32
2022-12-22T10:36:39.761Z,62.75
2022-12-22T10:37:39.943Z,65.30
2022-12-22T10:38:52.032Z,89.43
2022-12-22T10:39:48.646Z,59.10
2022-12-22T10:40:47.952Z,66.13
2022-12-22T10:41:48.783Z,59.67
2022-12-22T10:42:53.807Z,68.82
2022-12-22T10:43:53.698Z,70.53
2022-12-22T10:44:50.765Z,82.85
2022-12-22T10:45:49.204Z,84.40
2022-12-22T10:46:45.723Z,62.65
2022-12-22T10:47:48.694Z,58.15
2022-12-22T10:48:45.766Z,91.10
2022-12-22T10:49:45.656Z,77.43
2022-12-22T10:50:48.510Z,87.40
2022-12-22T10:52:08.261Z,61.55
2022-12-22T10:53:06.286Z,62.85
2022-12-22T10:54:03.087Z,90.68
2022-12-22T10:55:18.502Z,61.45
2022-12-22T10:56:30.861Z,65.15
2022-12-22T10:57:30.443Z,78.88
2022-12-22T10:58:28.560Z,67.68
2022-12-22T10:59:25.336Z,79.82
2022-12-22T11:00:30.989Z,74.72
2022-12-22T11:01:33.098Z,61.40
2022-12-22T11:02:38.378Z,63.33
2022-12-22T11:03:35.371Z,61.92
2022-12-22T11:04:32.090Z,60.28
2022-12-22T11:05:29.696Z,80.97
2022-12-22T11:06:26.416Z,78.38
2022-12-22T11:07:24.405Z,55.63
2022-12-22T11:08:21.275Z,235.93
2022-12-22T11:09:33.161Z,395.65
2022-12-22T11:10:36.960Z,523.03
2022-12-22T11:11:43.589Z,476.80
2022-12-22T11:13:04.976Z,604.45
2022-12-22T11:14:04.611Z,538.78
2022-12-22T11:15:11.967Z,1822.35
2022-12-22T11:16:31.408Z,927.00
2022-12-22T11:17:39.378Z,635.08
2022-12-22T11:18:51.286Z,403.58
2022-12-22T11:20:02.698Z,877.53
2022-12-22T11:21:01.983Z,1164.75
2022-12-22T11:22:10.699Z,845.92
2022-12-22T11:23:16.399Z,851.72
2022-12-22T11:24:34.679Z,974.00
2022-12-22T11:25:52.499Z,1651.45
2022-12-22T11:26:51.685Z,1369.55
2022-12-22T11:28:03.656Z,1329.82
2022-12-22T11:29:15.472Z,1607.05
2022-12-22T11:30:18.439Z,1424.68
2022-12-22T11:31:33.880Z,832.58
2022-12-22T11:32:33.396Z,545.28
2022-12-22T11:33:56.502Z,567.03
2022-12-22T11:35:17.908Z,620.55
2022-12-22T11:36:26.379Z,348.83
2022-12-22T11:37:45.828Z,270.25
2022-12-22T11:38:50.319Z,324.48
2022-12-22T11:39:59.197Z,268.67
2022-12-22T11:41:05.441Z,180.77
2022-12-22T11:42:10.897Z,328.25
2022-12-22T11:43:17.875Z,243.50
2022-12-22T11:45:02.417Z,265.60
2022-12-22T11:46:13.947Z,104.70
2022-12-22T11:47:54.560Z,173.23
2022-12-22T11:48:58.129Z,233.77
2022-12-22T11:51:00.382Z,131.93
2022-12-22T11:51:54.240Z,409.33
2022-12-22T11:53:06.015Z,272.58
2022-12-22T11:54:23.629Z,444.48
2022-12-22T11:55:50.879Z,286.30
2022-12-22T11:57:39.788Z,255.43
2022-12-22T11:58:36.370Z,516.60
2022-12-22T12:00:03.655Z,802.03
2022-12-22T12:01:45.288Z,645.25
2022-12-22T12:03:14.406Z,341.27
2022-12-22T12:04:23.280Z,152.98
2022-12-22T12:05:57.892Z,120.45
2022-12-22T12:07:22.025Z,80.10
2022-12-22T12:08:34.645Z,176.13
2022-12-22T12:09:31.205Z,300.30
2022-12-22T12:10:32.735Z,235.27
2022-12-22T12:11:47.644Z,155.25
2022-12-22T12:13:00.142Z,127.40
2022-12-22T12:14:26.192Z,85.10
2022-12-22T12:15:29.875Z,106.28
2022-12-22T12:16:55.791Z,101.07
2022-12-22T12:18:27.599Z,120.20
2022-12-22T12:19:52.932Z,97.20
2022-12-22T12:21:18.261Z,129.02
2022-12-22T12:23:07.697Z,87.40
2022-12-22T12:24:16.015Z,181.85
2022-12-22T12:25:27.837Z,150.02
2022-12-22T12:26:49.862Z,155.32
2022-12-22T12:28:04.955Z,272.20
2022-12-22T12:29:13.131Z,96.57
2022-12-22T12:31:39.420Z,246.18
2022-12-22T12:32:56.273Z,360.67
2022-12-22T12:33:56.750Z,302.00
2022-12-22T12:35:02.696Z,194.68
2022-12-22T12:36:08.150Z,361.77
2022-12-22T12:37:13.287Z,234.63
2022-12-22T12:38:56.743Z,117.50
2022-12-22T12:39:38.245Z,322.20
2022-12-22T12:40:52.968Z,324.77
2022-12-22T12:41:49.568Z,212.25
2022-12-22T12:42:47.701Z,146.35
2022-12-22T12:43:45.613Z,169.65
2022-12-22T12:44:42.595Z,310.63
2022-12-22T12:45:44.107Z,194.38
2022-12-22T12:46:40.877Z,220.05
2022-12-22T12:47:38.477Z,217.43
2022-12-22T12:48:35.090Z,141.25
2022-12-22T12:49:34.515Z,255.85
2022-12-22T12:50:32.704Z,155.93
2022-12-22T12:51:49.595Z,90.10
2022-12-22T12:52:48.735Z,62.60
2022-12-22T12:54:43.744Z,92.53
2022-12-22T12:55:56.117Z,83.47
2022-12-22T12:57:00.785Z,126.97
2022-12-22T12:57:59.269Z,138.43
2022-12-22T12:58:58.042Z,104.78
2022-12-22T12:59:58.432Z,87.47
2022-12-22T13:00:58.825Z,82.90
2022-12-22T13:01:58.202Z,103.80
2022-12-22T13:03:52.908Z,71.05
2022-12-22T13:05:14.871Z,52.83
2022-12-22T13:06:57.709Z,82.28
2022-12-22T13:08:18.937Z,99.97
2022-12-22T13:10:48.888Z,91.38
2022-12-22T13:12:11.850Z,82.68
2022-12-22T13:13:02.566Z,76.63
2022-12-22T13:13:59.421Z,66.63
2022-12-22T13:15:01.441Z,94.68
2022-12-22T13:16:01.786Z,96.47
2022-12-22T13:17:34.160Z,113.72
2022-12-22T13:18:33.704Z,94.35
2022-12-22T13:19:31.010Z,112.90
2022-12-22T13:20:34.765Z,166.40
2022-12-22T13:21:53.027Z,143.52
2022-12-22T13:22:56.832Z,104.82
2022-12-22T13:25:17.023Z,166.75
2022-12-22T13:26:16.445Z,240.73
2022-12-22T13:27:13.179Z,347.05
2022-12-22T13:28:17.461Z,359.83
2022-12-22T13:29:24.285Z,163.35
2022-12-22T13:30:21.779Z,87.10
2022-12-22T13:31:46.176Z,73.10
2022-12-22T13:32:45.297Z,69.88
2022-12-22T13:33:44.905Z,47.03
2022-12-22T13:35:29.614Z,57.17
2022-12-22T13:36:20.187Z,76.43
2022-12-22T13:37:23.944Z,90.55
2022-12-22T13:38:30.970Z,68.07
2022-12-22T13:39:27.596Z,54.65
2022-12-22T13:40:39.625Z,56.10
2022-12-22T13:41:40.667Z,58.13
2022-12-22T13:42:45.322Z,65.22
2022-12-22T13:43:45.353Z,74.82
2022-12-22T13:44:42.725Z,145.68
2022-12-22T13:45:39.346Z,75.97
2022-12-22T13:46:37.716Z,55.08
2022-12-22T13:47:34.339Z,49.78
2022-12-22T13:48:43.576Z,47.38
2022-12-22T13:50:07.773Z,55.85
2022-12-22T13:51:04.348Z,49.60
2022-12-22T13:52:05.399Z,123.28
2022-12-22T13:53:04.035Z,207.43
2022-12-22T13:54:09.831Z,77.50
2022-12-22T13:55:14.631Z,52.80
2022-12-22T13:56:23.897Z,52.38
2022-12-22T13:57:22.394Z,48.35
2022-12-22T13:58:28.000Z,56.50
2022-12-22T13:59:30.687Z,53.40
2022-12-22T14:00:28.897Z,120.38
2022-12-22T14:01:26.228Z,81.20
2022-12-22T14:02:23.293Z,62.63